Terminal Aerodrome Forecast
Issued by NWS

Home | Current Version | Previous Version | Text Only | Print | Product List | Glossary On
Versions: 1 2 3 4 5 6 7 8 9 10 11 12 13 14 15 16 17 18 19 20 21 22 23 24 25
000
FTUS43 KDVN 251100 RRA
TAFBRL
TAF
KBRL 251140Z 2512/2612 06005KT P6SM SCT070
     FM251800 08009KT 4SM -SN BR BKN030
     FM252100 08012KT 1SM -SN BR OVC010
     FM260000 07010KT 1/2SM SN FZFG OVC004
     FM260400 04011KT 1 1/2SM -SN OVC005
     FM260900 03009KT 4SM -SN BR BKN008=

USA.gov is the U.S. government's official web portal to all federal, state and local government web resources and services.